sensor_id;sensor_type;location;lat;lon;timestamp;P1;durP1;ratioP1;P2;durP2;ratioP2
27543;SDS011;17996;51.056;3.656;2023-03-23T00:01:27;4.43;;;2.70;;
27543;SDS011;17996;51.056;3.656;2023-03-23T00:03:56;3.28;;;2.85;;
27543;SDS011;17996;51.056;3.656;2023-03-23T00:06:24;8.27;;;3.05;;
27543;SDS011;17996;51.056;3.656;2023-03-23T00:08:51;3.35;;;2.75;;
27543;SDS011;17996;51.056;3.656;2023-03-23T00:11:24;4.03;;;2.78;;
27543;SDS011;17996;51.056;3.656;2023-03-23T00:13:54;5.63;;;3.05;;
27543;SDS011;17996;51.056;3.656;2023-03-23T00:16:23;7.03;;;3.78;;
27543;SDS011;17996;51.056;3.656;2023-03-23T00:18:59;9.73;;;3.15;;
27543;SDS011;17996;51.056;3.656;2023-03-23T00:21:31;3.72;;;2.80;;
27543;SDS011;17996;51.056;3.656;2023-03-23T00:24:10;6.35;;;2.70;;
27543;SDS011;17996;51.056;3.656;2023-03-23T00:26:46;5.40;;;3.47;;
27543;SDS011;17996;51.056;3.656;2023-03-23T00:29:15;5.97;;;3.50;;
27543;SDS011;17996;51.056;3.656;2023-03-23T00:31:44;3.92;;;3.00;;
27543;SDS011;17996;51.056;3.656;2023-03-23T00:34:17;6.22;;;3.05;;
27543;SDS011;17996;51.056;3.656;2023-03-23T00:36:48;6.85;;;3.65;;
27543;SDS011;17996;51.056;3.656;2023-03-23T00:39:15;5.70;;;3.22;;
27543;SDS011;17996;51.056;3.656;2023-03-23T00:41:43;4.88;;;3.17;;
27543;SDS011;17996;51.056;3.656;2023-03-23T00:44:08;6.50;;;3.08;;
27543;SDS011;17996;51.056;3.656;2023-03-23T00:46:34;8.95;;;3.10;;
27543;SDS011;17996;51.056;3.656;2023-03-23T00:49:09;8.10;;;3.22;;
27543;SDS011;17996;51.056;3.656;2023-03-23T00:51:37;10.45;;;2.97;;
27543;SDS011;17996;51.056;3.656;2023-03-23T00:54:03;3.78;;;2.90;;
27543;SDS011;17996;51.056;3.656;2023-03-23T00:56:29;9.15;;;3.00;;
27543;SDS011;17996;51.056;3.656;2023-03-23T00:58:56;3.95;;;2.42;;
27543;SDS011;17996;51.056;3.656;2023-03-23T01:01:21;5.75;;;2.95;;
27543;SDS011;17996;51.056;3.656;2023-03-23T01:03:47;5.30;;;2.85;;
27543;SDS011;17996;51.056;3.656;2023-03-23T01:06:14;6.00;;;2.92;;
27543;SDS011;17996;51.056;3.656;2023-03-23T01:08:40;4.20;;;2.80;;
27543;SDS011;17996;51.056;3.656;2023-03-23T01:11:11;7.18;;;2.90;;
27543;SDS011;17996;51.056;3.656;2023-03-23T01:13:38;5.93;;;3.10;;
27543;SDS011;17996;51.056;3.656;2023-03-23T01:16:05;4.95;;;2.83;;
27543;SDS011;17996;51.056;3.656;2023-03-23T01:18:31;5.97;;;2.60;;
27543;SDS011;17996;51.056;3.656;2023-03-23T01:20:57;6.70;;;2.53;;
27543;SDS011;17996;51.056;3.656;2023-03-23T01:23:23;3.65;;;2.67;;
27543;SDS011;17996;51.056;3.656;2023-03-23T01:25:48;4.13;;;2.58;;
27543;SDS011;17996;51.056;3.656;2023-03-23T01:28:15;5.15;;;2.88;;
27543;SDS011;17996;51.056;3.656;2023-03-23T01:30:40;6.70;;;2.33;;
27543;SDS011;17996;51.056;3.656;2023-03-23T01:33:06;4.97;;;2.38;;
27543;SDS011;17996;51.056;3.656;2023-03-23T01:35:32;4.35;;;2.33;;
27543;SDS011;17996;51.056;3.656;2023-03-23T01:37:57;5.43;;;2.30;;
27543;SDS011;17996;51.056;3.656;2023-03-23T01:40:25;3.83;;;1.98;;
27543;SDS011;17996;51.056;3.656;2023-03-23T01:42:52;2.85;;;2.28;;
27543;SDS011;17996;51.056;3.656;2023-03-23T01:47:46;6.55;;;2.00;;
27543;SDS011;17996;51.056;3.656;2023-03-23T01:50:20;7.30;;;2.30;;
27543;SDS011;17996;51.056;3.656;2023-03-23T01:52:50;4.22;;;2.10;;
27543;SDS011;17996;51.056;3.656;2023-03-23T01:55:17;6.82;;;2.28;;
27543;SDS011;17996;51.056;3.656;2023-03-23T01:57:44;5.80;;;1.70;;
27543;SDS011;17996;51.056;3.656;2023-03-23T02:00:11;7.30;;;2.17;;
27543;SDS011;17996;51.056;3.656;2023-03-23T02:02:40;4.82;;;2.25;;
27543;SDS011;17996;51.056;3.656;2023-03-23T02:05:12;8.05;;;2.65;;
27543;SDS011;17996;51.056;3.656;2023-03-23T02:07:44;4.60;;;1.88;;
27543;SDS011;17996;51.056;3.656;2023-03-23T02:10:12;4.43;;;1.98;;
27543;SDS011;17996;51.056;3.656;2023-03-23T02:12:38;5.22;;;2.10;;
27543;SDS011;17996;51.056;3.656;2023-03-23T02:15:04;6.32;;;1.90;;
27543;SDS011;17996;51.056;3.656;2023-03-23T02:17:31;7.30;;;2.60;;
27543;SDS011;17996;51.056;3.656;2023-03-23T02:20:11;4.85;;;1.85;;
27543;SDS011;17996;51.056;3.656;2023-03-23T02:22:48;6.32;;;1.95;;
27543;SDS011;17996;51.056;3.656;2023-03-23T02:36:46;6.47;;;2.30;;
27543;SDS011;17996;51.056;3.656;2023-03-23T02:41:50;11.38;;;2.28;;
27543;SDS011;17996;51.056;3.656;2023-03-23T02:44:19;8.27;;;2.33;;
27543;SDS011;17996;51.056;3.656;2023-03-23T02:46:47;10.07;;;2.57;;
27543;SDS011;17996;51.056;3.656;2023-03-23T02:49:14;11.30;;;2.28;;
27543;SDS011;17996;51.056;3.656;2023-03-23T02:51:43;11.10;;;3.17;;
27543;SDS011;17996;51.056;3.656;2023-03-23T02:54:11;10.98;;;3.47;;
27543;SDS011;17996;51.056;3.656;2023-03-23T02:56:38;8.75;;;2.47;;
27543;SDS011;17996;51.056;3.656;2023-03-23T02:59:05;7.18;;;2.13;;
27543;SDS011;17996;51.056;3.656;2023-03-23T03:04:07;10.48;;;1.85;;
27543;SDS011;17996;51.056;3.656;2023-03-23T03:20:40;12.48;;;2.55;;
27543;SDS011;17996;51.056;3.656;2023-03-23T03:23:11;7.45;;;2.00;;
27543;SDS011;17996;51.056;3.656;2023-03-23T03:25:40;6.35;;;2.15;;
27543;SDS011;17996;51.056;3.656;2023-03-23T03:28:13;4.80;;;2.03;;
27543;SDS011;17996;51.056;3.656;2023-03-23T03:30:49;7.40;;;1.95;;
27543;SDS011;17996;51.056;3.656;2023-03-23T03:33:22;11.13;;;2.60;;
27543;SDS011;17996;51.056;3.656;2023-03-23T03:35:51;4.75;;;1.92;;
27543;SDS011;17996;51.056;3.656;2023-03-23T03:38:18;8.13;;;2.47;;
27543;SDS011;17996;51.056;3.656;2023-03-23T03:40:45;14.02;;;2.10;;
27543;SDS011;17996;51.056;3.656;2023-03-23T03:43:10;3.45;;;1.70;;
27543;SDS011;17996;51.056;3.656;2023-03-23T03:45:36;12.32;;;2.40;;
27543;SDS011;17996;51.056;3.656;2023-03-23T03:48:02;10.63;;;1.83;;
27543;SDS011;17996;51.056;3.656;2023-03-23T03:50:28;9.15;;;2.22;;
27543;SDS011;17996;51.056;3.656;2023-03-23T03:52:54;10.73;;;2.42;;
27543;SDS011;17996;51.056;3.656;2023-03-23T03:55:19;10.52;;;2.33;;
27543;SDS011;17996;51.056;3.656;2023-03-23T03:57:46;11.18;;;2.92;;
27543;SDS011;17996;51.056;3.656;2023-03-23T04:00:12;15.63;;;3.03;;
27543;SDS011;17996;51.056;3.656;2023-03-23T04:02:40;5.07;;;2.00;;
27543;SDS011;17996;51.056;3.656;2023-03-23T04:05:07;9.30;;;2.13;;
27543;SDS011;17996;51.056;3.656;2023-03-23T04:07:35;12.38;;;2.22;;
27543;SDS011;17996;51.056;3.656;2023-03-23T04:10:05;9.68;;;3.05;;
27543;SDS011;17996;51.056;3.656;2023-03-23T04:12:32;8.07;;;1.92;;
27543;SDS011;17996;51.056;3.656;2023-03-23T04:14:58;9.90;;;1.67;;
27543;SDS011;17996;51.056;3.656;2023-03-23T04:17:23;13.82;;;2.75;;
27543;SDS011;17996;51.056;3.656;2023-03-23T04:19:53;12.68;;;2.42;;
27543;SDS011;17996;51.056;3.656;2023-03-23T04:24:49;5.65;;;2.00;;
27543;SDS011;17996;51.056;3.656;2023-03-23T04:27:16;6.20;;;1.98;;
27543;SDS011;17996;51.056;3.656;2023-03-23T04:29:42;9.02;;;2.63;;
27543;SDS011;17996;51.056;3.656;2023-03-23T04:32:13;8.07;;;2.25;;
27543;SDS011;17996;51.056;3.656;2023-03-23T04:34:39;12.23;;;3.10;;
27543;SDS011;17996;51.056;3.656;2023-03-23T04:37:05;10.43;;;2.72;;
27543;SDS011;17996;51.056;3.656;2023-03-23T04:39:33;14.68;;;2.45;;
27543;SDS011;17996;51.056;3.656;2023-03-23T04:41:58;9.60;;;3.15;;
27543;SDS011;17996;51.056;3.656;2023-03-23T04:44:26;15.02;;;2.47;;
27543;SDS011;17996;51.056;3.656;2023-03-23T04:46:52;25.17;;;3.70;;
27543;SDS011;17996;51.056;3.656;2023-03-23T04:49:19;11.57;;;2.65;;
27543;SDS011;17996;51.056;3.656;2023-03-23T04:51:47;10.52;;;2.70;;
27543;SDS011;17996;51.056;3.656;2023-03-23T04:54:15;10.07;;;2.72;;
27543;SDS011;17996;51.056;3.656;2023-03-23T04:56:41;18.67;;;3.03;;
27543;SDS011;17996;51.056;3.656;2023-03-23T04:59:07;12.55;;;2.72;;
27543;SDS011;17996;51.056;3.656;2023-03-23T05:01:33;10.40;;;2.97;;
27543;SDS011;17996;51.056;3.656;2023-03-23T05:04:01;13.93;;;3.35;;
27543;SDS011;17996;51.056;3.656;2023-03-23T05:06:27;13.57;;;3.92;;
27543;SDS011;17996;51.056;3.656;2023-03-23T05:08:53;13.73;;;3.58;;
27543;SDS011;17996;51.056;3.656;2023-03-23T05:11:18;15.48;;;3.65;;
27543;SDS011;17996;51.056;3.656;2023-03-23T05:13:44;13.00;;;3.00;;
27543;SDS011;17996;51.056;3.656;2023-03-23T05:16:10;14.93;;;3.20;;
27543;SDS011;17996;51.056;3.656;2023-03-23T05:18:36;11.63;;;3.08;;
27543;SDS011;17996;51.056;3.656;2023-03-23T05:21:02;11.70;;;3.00;;
27543;SDS011;17996;51.056;3.656;2023-03-23T05:23:28;12.63;;;3.22;;
27543;SDS011;17996;51.056;3.656;2023-03-23T05:25:56;15.30;;;4.00;;
27543;SDS011;17996;51.056;3.656;2023-03-23T05:28:26;11.73;;;3.28;;
27543;SDS011;17996;51.056;3.656;2023-03-23T05:30:52;16.88;;;3.63;;
27543;SDS011;17996;51.056;3.656;2023-03-23T05:33:19;16.58;;;3.55;;
27543;SDS011;17996;51.056;3.656;2023-03-23T05:35:45;10.77;;;3.53;;
27543;SDS011;17996;51.056;3.656;2023-03-23T05:38:12;14.98;;;3.08;;
27543;SDS011;17996;51.056;3.656;2023-03-23T05:40:39;9.20;;;2.35;;
27543;SDS011;17996;51.056;3.656;2023-03-23T05:43:06;11.18;;;3.17;;
27543;SDS011;17996;51.056;3.656;2023-03-23T05:45:33;14.27;;;3.40;;
27543;SDS011;17996;51.056;3.656;2023-03-23T05:48:00;13.02;;;3.38;;
27543;SDS011;17996;51.056;3.656;2023-03-23T05:50:25;25.38;;;4.38;;
27543;SDS011;17996;51.056;3.656;2023-03-23T05:52:53;13.43;;;2.55;;
27543;SDS011;17996;51.056;3.656;2023-03-23T05:55:20;14.35;;;2.85;;
27543;SDS011;17996;51.056;3.656;2023-03-23T05:57:46;10.48;;;3.45;;
27543;SDS011;17996;51.056;3.656;2023-03-23T06:00:12;8.57;;;2.28;;
27543;SDS011;17996;51.056;3.656;2023-03-23T06:02:45;9.95;;;2.22;;
27543;SDS011;17996;51.056;3.656;2023-03-23T06:05:13;10.60;;;2.35;;
27543;SDS011;17996;51.056;3.656;2023-03-23T06:07:39;11.50;;;2.40;;
27543;SDS011;17996;51.056;3.656;2023-03-23T06:10:05;8.77;;;2.25;;
27543;SDS011;17996;51.056;3.656;2023-03-23T06:12:32;10.95;;;2.63;;
27543;SDS011;17996;51.056;3.656;2023-03-23T06:14:58;10.68;;;2.38;;
27543;SDS011;17996;51.056;3.656;2023-03-23T06:17:23;11.38;;;2.25;;
27543;SDS011;17996;51.056;3.656;2023-03-23T06:19:49;9.40;;;2.83;;
27543;SDS011;17996;51.056;3.656;2023-03-23T06:22:16;13.75;;;2.03;;
27543;SDS011;17996;51.056;3.656;2023-03-23T06:24:42;8.98;;;2.65;;
27543;SDS011;17996;51.056;3.656;2023-03-23T06:27:09;15.15;;;2.40;;
27543;SDS011;17996;51.056;3.656;2023-03-23T06:29:35;8.35;;;2.50;;
27543;SDS011;17996;51.056;3.656;2023-03-23T06:32:02;12.40;;;2.70;;
27543;SDS011;17996;51.056;3.656;2023-03-23T06:34:29;13.40;;;2.38;;
27543;SDS011;17996;51.056;3.656;2023-03-23T06:36:55;10.88;;;2.45;;
27543;SDS011;17996;51.056;3.656;2023-03-23T06:39:22;10.38;;;2.50;;
27543;SDS011;17996;51.056;3.656;2023-03-23T06:41:48;10.43;;;2.08;;
27543;SDS011;17996;51.056;3.656;2023-03-23T06:44:14;7.10;;;2.00;;
27543;SDS011;17996;51.056;3.656;2023-03-23T06:46:41;9.52;;;2.38;;
27543;SDS011;17996;51.056;3.656;2023-03-23T06:49:07;7.05;;;2.40;;
27543;SDS011;17996;51.056;3.656;2023-03-23T06:51:33;10.07;;;2.83;;
27543;SDS011;17996;51.056;3.656;2023-03-23T06:53:59;12.07;;;2.00;;
27543;SDS011;17996;51.056;3.656;2023-03-23T06:56:25;8.63;;;1.80;;
27543;SDS011;17996;51.056;3.656;2023-03-23T06:58:51;13.63;;;2.47;;
27543;SDS011;17996;51.056;3.656;2023-03-23T07:01:16;8.13;;;1.92;;
27543;SDS011;17996;51.056;3.656;2023-03-23T07:03:42;8.18;;;2.03;;
27543;SDS011;17996;51.056;3.656;2023-03-23T07:06:09;10.80;;;2.67;;
27543;SDS011;17996;51.056;3.656;2023-03-23T07:08:35;5.85;;;1.92;;
27543;SDS011;17996;51.056;3.656;2023-03-23T07:11:02;9.27;;;2.25;;
27543;SDS011;17996;51.056;3.656;2023-03-23T07:13:28;9.80;;;1.92;;
27543;SDS011;17996;51.056;3.656;2023-03-23T07:15:54;8.10;;;2.03;;
27543;SDS011;17996;51.056;3.656;2023-03-23T07:18:20;5.38;;;1.70;;
27543;SDS011;17996;51.056;3.656;2023-03-23T07:20:47;7.05;;;2.05;;
27543;SDS011;17996;51.056;3.656;2023-03-23T07:23:14;9.10;;;2.50;;
27543;SDS011;17996;51.056;3.656;2023-03-23T07:25:40;9.18;;;2.22;;
27543;SDS011;17996;51.056;3.656;2023-03-23T07:28:06;9.30;;;2.20;;
27543;SDS011;17996;51.056;3.656;2023-03-23T07:30:32;7.85;;;2.10;;
27543;SDS011;17996;51.056;3.656;2023-03-23T07:32:57;10.18;;;2.33;;
27543;SDS011;17996;51.056;3.656;2023-03-23T07:35:23;11.27;;;2.47;;
27543;SDS011;17996;51.056;3.656;2023-03-23T07:37:50;12.93;;;2.80;;
27543;SDS011;17996;51.056;3.656;2023-03-23T07:40:16;15.23;;;2.90;;
27543;SDS011;17996;51.056;3.656;2023-03-23T07:42:51;12.02;;;2.90;;
27543;SDS011;17996;51.056;3.656;2023-03-23T07:45:18;15.20;;;2.83;;
27543;SDS011;17996;51.056;3.656;2023-03-23T07:47:43;10.27;;;2.15;;
27543;SDS011;17996;51.056;3.656;2023-03-23T07:50:10;6.65;;;2.17;;
27543;SDS011;17996;51.056;3.656;2023-03-23T07:52:37;8.95;;;2.88;;
27543;SDS011;17996;51.056;3.656;2023-03-23T07:55:04;9.02;;;2.42;;
27543;SDS011;17996;51.056;3.656;2023-03-23T07:57:31;16.88;;;2.90;;
27543;SDS011;17996;51.056;3.656;2023-03-23T07:59:58;9.52;;;2.58;;
27543;SDS011;17996;51.056;3.656;2023-03-23T08:02:24;9.73;;;2.25;;
27543;SDS011;17996;51.056;3.656;2023-03-23T08:04:51;11.68;;;2.50;;
27543;SDS011;17996;51.056;3.656;2023-03-23T08:07:18;7.28;;;2.08;;
27543;SDS011;17996;51.056;3.656;2023-03-23T08:09:45;8.95;;;2.35;;
27543;SDS011;17996;51.056;3.656;2023-03-23T08:12:12;9.45;;;2.83;;
27543;SDS011;17996;51.056;3.656;2023-03-23T08:14:38;10.60;;;2.50;;
27543;SDS011;17996;51.056;3.656;2023-03-23T08:17:06;12.27;;;2.30;;
27543;SDS011;17996;51.056;3.656;2023-03-23T08:19:34;6.30;;;2.17;;
27543;SDS011;17996;51.056;3.656;2023-03-23T08:22:02;11.35;;;2.33;;
27543;SDS011;17996;51.056;3.656;2023-03-23T08:24:29;10.68;;;2.17;;
27543;SDS011;17996;51.056;3.656;2023-03-23T08:26:55;7.68;;;2.03;;
27543;SDS011;17996;51.056;3.656;2023-03-23T08:29:21;9.73;;;2.40;;
27543;SDS011;17996;51.056;3.656;2023-03-23T08:31:47;14.27;;;2.92;;
27543;SDS011;17996;51.056;3.656;2023-03-23T08:34:13;10.35;;;2.30;;
27543;SDS011;17996;51.056;3.656;2023-03-23T08:36:38;13.55;;;3.28;;
27543;SDS011;17996;51.056;3.656;2023-03-23T08:39:04;20.75;;;3.03;;
27543;SDS011;17996;51.056;3.656;2023-03-23T08:41:31;15.57;;;2.95;;
27543;SDS011;17996;51.056;3.656;2023-03-23T08:43:57;14.02;;;3.00;;
27543;SDS011;17996;51.056;3.656;2023-03-23T08:46:22;13.18;;;2.80;;
27543;SDS011;17996;51.056;3.656;2023-03-23T08:48:48;15.30;;;2.95;;
27543;SDS011;17996;51.056;3.656;2023-03-23T08:51:14;15.88;;;3.25;;
27543;SDS011;17996;51.056;3.656;2023-03-23T08:53:40;18.25;;;3.45;;
27543;SDS011;17996;51.056;3.656;2023-03-23T08:56:08;15.15;;;3.33;;
27543;SDS011;17996;51.056;3.656;2023-03-23T08:58:36;12.98;;;2.83;;
27543;SDS011;17996;51.056;3.656;2023-03-23T09:01:03;17.20;;;2.92;;
27543;SDS011;17996;51.056;3.656;2023-03-23T09:03:32;10.57;;;3.10;;
27543;SDS011;17996;51.056;3.656;2023-03-23T09:06:00;16.63;;;3.78;;
27543;SDS011;17996;51.056;3.656;2023-03-23T09:08:27;13.98;;;2.60;;
27543;SDS011;17996;51.056;3.656;2023-03-23T09:10:59;15.15;;;3.30;;
27543;SDS011;17996;51.056;3.656;2023-03-23T09:13:30;8.82;;;2.63;;
27543;SDS011;17996;51.056;3.656;2023-03-23T09:15:56;12.60;;;2.85;;
27543;SDS011;17996;51.056;3.656;2023-03-23T09:18:22;13.57;;;2.85;;
27543;SDS011;17996;51.056;3.656;2023-03-23T09:20:51;9.85;;;2.90;;
27543;SDS011;17996;51.056;3.656;2023-03-23T09:23:18;9.85;;;2.50;;
27543;SDS011;17996;51.056;3.656;2023-03-23T09:25:45;8.55;;;1.92;;
27543;SDS011;17996;51.056;3.656;2023-03-23T09:28:12;11.13;;;2.50;;
27543;SDS011;17996;51.056;3.656;2023-03-23T09:30:38;10.90;;;2.50;;
27543;SDS011;17996;51.056;3.656;2023-03-23T09:33:06;8.30;;;1.92;;
27543;SDS011;17996;51.056;3.656;2023-03-23T09:35:33;7.82;;;2.08;;
27543;SDS011;17996;51.056;3.656;2023-03-23T09:38:01;6.72;;;2.20;;
27543;SDS011;17996;51.056;3.656;2023-03-23T09:40:39;11.98;;;2.75;;
27543;SDS011;17996;51.056;3.656;2023-03-23T09:49:38;6.45;;;2.42;;
27543;SDS011;17996;51.056;3.656;2023-03-23T09:52:15;10.45;;;2.30;;
27543;SDS011;17996;51.056;3.656;2023-03-23T09:57:22;10.75;;;2.75;;
27543;SDS011;17996;51.056;3.656;2023-03-23T10:00:16;11.90;;;3.25;;
27543;SDS011;17996;51.056;3.656;2023-03-23T10:05:35;10.52;;;3.17;;
27543;SDS011;17996;51.056;3.656;2023-03-23T10:11:04;11.13;;;3.40;;
27543;SDS011;17996;51.056;3.656;2023-03-23T10:16:26;9.20;;;2.40;;
27543;SDS011;17996;51.056;3.656;2023-03-23T10:22:11;8.70;;;2.33;;
27543;SDS011;17996;51.056;3.656;2023-03-23T10:25:25;12.93;;;3.08;;
27543;SDS011;17996;51.056;3.656;2023-03-23T10:30:33;12.68;;;3.53;;
27543;SDS011;17996;51.056;3.656;2023-03-23T10:36:00;12.90;;;3.88;;
27543;SDS011;17996;51.056;3.656;2023-03-23T10:38:49;12.15;;;3.72;;
27543;SDS011;17996;51.056;3.656;2023-03-23T10:41:28;16.10;;;4.07;;
27543;SDS011;17996;51.056;3.656;2023-03-23T10:43:55;20.65;;;4.70;;
27543;SDS011;17996;51.056;3.656;2023-03-23T10:48:56;13.60;;;3.53;;
27543;SDS011;17996;51.056;3.656;2023-03-23T10:51:27;12.95;;;3.35;;
27543;SDS011;17996;51.056;3.656;2023-03-23T10:54:02;12.85;;;3.70;;
27543;SDS011;17996;51.056;3.656;2023-03-23T10:56:43;16.73;;;3.83;;
27543;SDS011;17996;51.056;3.656;2023-03-23T10:59:20;15.50;;;4.22;;
27543;SDS011;17996;51.056;3.656;2023-03-23T11:01:52;18.95;;;3.97;;
27543;SDS011;17996;51.056;3.656;2023-03-23T11:04:20;11.77;;;4.10;;
27543;SDS011;17996;51.056;3.656;2023-03-23T11:06:48;15.30;;;3.72;;
27543;SDS011;17996;51.056;3.656;2023-03-23T11:09:18;16.85;;;3.38;;
27543;SDS011;17996;51.056;3.656;2023-03-23T11:11:50;19.33;;;4.85;;
27543;SDS011;17996;51.056;3.656;2023-03-23T11:14:28;13.73;;;4.20;;
27543;SDS011;17996;51.056;3.656;2023-03-23T11:17:03;15.35;;;4.85;;
27543;SDS011;17996;51.056;3.656;2023-03-23T11:19:32;10.77;;;3.17;;
27543;SDS011;17996;51.056;3.656;2023-03-23T11:24:30;10.38;;;4.55;;
27543;SDS011;17996;51.056;3.656;2023-03-23T11:27:01;18.40;;;4.43;;
27543;SDS011;17996;51.056;3.656;2023-03-23T11:29:32;16.25;;;4.28;;
27543;SDS011;17996;51.056;3.656;2023-03-23T11:34:25;24.00;;;4.05;;
27543;SDS011;17996;51.056;3.656;2023-03-23T11:37:02;19.63;;;4.53;;
27543;SDS011;17996;51.056;3.656;2023-03-23T11:39:32;17.58;;;4.60;;
27543;SDS011;17996;51.056;3.656;2023-03-23T11:42:12;20.73;;;4.78;;
27543;SDS011;17996;51.056;3.656;2023-03-23T11:44:46;23.60;;;4.65;;
27543;SDS011;17996;51.056;3.656;2023-03-23T11:55:08;14.77;;;4.10;;
27543;SDS011;17996;51.056;3.656;2023-03-23T11:57:46;18.83;;;4.55;;
27543;SDS011;17996;51.056;3.656;2023-03-23T12:00:16;17.45;;;4.18;;
27543;SDS011;17996;51.056;3.656;2023-03-23T12:02:57;22.70;;;4.90;;
27543;SDS011;17996;51.056;3.656;2023-03-23T12:05:32;13.48;;;3.90;;
27543;SDS011;17996;51.056;3.656;2023-03-23T12:10:41;20.33;;;4.30;;
27543;SDS011;17996;51.056;3.656;2023-03-23T12:13:31;25.27;;;4.75;;
27543;SDS011;17996;51.056;3.656;2023-03-23T12:27:01;17.50;;;3.97;;
27543;SDS011;17996;51.056;3.656;2023-03-23T12:35:07;17.15;;;4.15;;
27543;SDS011;17996;51.056;3.656;2023-03-23T12:49:21;16.88;;;4.20;;
27543;SDS011;17996;51.056;3.656;2023-03-23T12:51:29;20.33;;;4.85;;
27543;SDS011;17996;51.056;3.656;2023-03-23T12:54:07;24.33;;;4.72;;
27543;SDS011;17996;51.056;3.656;2023-03-23T12:56:43;22.05;;;4.72;;
27543;SDS011;17996;51.056;3.656;2023-03-23T12:59:22;20.08;;;4.05;;
27543;SDS011;17996;51.056;3.656;2023-03-23T13:05:06;17.17;;;4.53;;
27543;SDS011;17996;51.056;3.656;2023-03-23T13:07:44;19.80;;;4.82;;
27543;SDS011;17996;51.056;3.656;2023-03-23T13:10:28;17.02;;;4.32;;
27543;SDS011;17996;51.056;3.656;2023-03-23T13:12:58;19.77;;;4.22;;
27543;SDS011;17996;51.056;3.656;2023-03-23T13:26:03;20.27;;;4.82;;
27543;SDS011;17996;51.056;3.656;2023-03-23T13:28:47;15.18;;;3.95;;
27543;SDS011;17996;51.056;3.656;2023-03-23T13:31:37;18.02;;;4.07;;
27543;SDS011;17996;51.056;3.656;2023-03-23T13:36:40;15.25;;;4.00;;
27543;SDS011;17996;51.056;3.656;2023-03-23T13:42:20;18.38;;;3.53;;
27543;SDS011;17996;51.056;3.656;2023-03-23T13:47:21;19.90;;;4.03;;
27543;SDS011;17996;51.056;3.656;2023-03-23T13:54:50;22.42;;;4.30;;
27543;SDS011;17996;51.056;3.656;2023-03-23T13:57:21;15.25;;;3.53;;
27543;SDS011;17996;51.056;3.656;2023-03-23T14:08:24;15.45;;;4.20;;
27543;SDS011;17996;51.056;3.656;2023-03-23T14:11:10;17.98;;;4.20;;
27543;SDS011;17996;51.056;3.656;2023-03-23T14:13:42;12.98;;;3.40;;
27543;SDS011;17996;51.056;3.656;2023-03-23T14:19:01;16.00;;;3.92;;
27543;SDS011;17996;51.056;3.656;2023-03-23T14:24:09;15.43;;;4.25;;
27543;SDS011;17996;51.056;3.656;2023-03-23T14:26:37;16.05;;;3.80;;
27543;SDS011;17996;51.056;3.656;2023-03-23T14:29:04;14.65;;;4.03;;
27543;SDS011;17996;51.056;3.656;2023-03-23T14:31:31;15.02;;;3.47;;
27543;SDS011;17996;51.056;3.656;2023-03-23T14:34:00;16.63;;;4.55;;
27543;SDS011;17996;51.056;3.656;2023-03-23T14:36:31;16.77;;;3.63;;
27543;SDS011;17996;51.056;3.656;2023-03-23T14:39:04;18.05;;;3.80;;
27543;SDS011;17996;51.056;3.656;2023-03-23T14:41:34;18.38;;;3.85;;
27543;SDS011;17996;51.056;3.656;2023-03-23T14:44:01;11.85;;;4.03;;
27543;SDS011;17996;51.056;3.656;2023-03-23T14:46:29;12.88;;;3.78;;
27543;SDS011;17996;51.056;3.656;2023-03-23T14:48:56;9.68;;;3.50;;
27543;SDS011;17996;51.056;3.656;2023-03-23T14:51:26;18.30;;;3.88;;
27543;SDS011;17996;51.056;3.656;2023-03-23T14:53:52;14.25;;;3.78;;
27543;SDS011;17996;51.056;3.656;2023-03-23T14:56:19;19.10;;;3.80;;
27543;SDS011;17996;51.056;3.656;2023-03-23T14:58:49;15.20;;;3.92;;
27543;SDS011;17996;51.056;3.656;2023-03-23T15:01:19;14.20;;;3.45;;
27543;SDS011;17996;51.056;3.656;2023-03-23T15:03:53;20.92;;;4.60;;
27543;SDS011;17996;51.056;3.656;2023-03-23T15:06:21;10.40;;;3.33;;
27543;SDS011;17996;51.056;3.656;2023-03-23T15:08:50;12.93;;;3.00;;
27543;SDS011;17996;51.056;3.656;2023-03-23T15:11:27;12.73;;;3.25;;
27543;SDS011;17996;51.056;3.656;2023-03-23T15:13:57;17.23;;;4.20;;
27543;SDS011;17996;51.056;3.656;2023-03-23T15:16:31;13.90;;;3.30;;
27543;SDS011;17996;51.056;3.656;2023-03-23T15:18:59;14.20;;;3.92;;
27543;SDS011;17996;51.056;3.656;2023-03-23T15:21:27;11.73;;;3.03;;
27543;SDS011;17996;51.056;3.656;2023-03-23T15:23:55;14.60;;;3.90;;
27543;SDS011;17996;51.056;3.656;2023-03-23T15:31:39;20.50;;;4.40;;
27543;SDS011;17996;51.056;3.656;2023-03-23T15:34:11;19.07;;;5.50;;
27543;SDS011;17996;51.056;3.656;2023-03-23T15:36:57;15.65;;;3.72;;
27543;SDS011;17996;51.056;3.656;2023-03-23T15:39:25;17.27;;;4.15;;
27543;SDS011;17996;51.056;3.656;2023-03-23T15:41:52;16.30;;;3.90;;
27543;SDS011;17996;51.056;3.656;2023-03-23T15:44:20;20.42;;;4.20;;
27543;SDS011;17996;51.056;3.656;2023-03-23T15:47:10;16.73;;;4.13;;
27543;SDS011;17996;51.056;3.656;2023-03-23T15:49:42;19.52;;;4.03;;
27543;SDS011;17996;51.056;3.656;2023-03-23T15:52:11;15.18;;;3.65;;
27543;SDS011;17996;51.056;3.656;2023-03-23T15:54:38;16.70;;;3.72;;
27543;SDS011;17996;51.056;3.656;2023-03-23T15:57:10;16.23;;;4.55;;
27543;SDS011;17996;51.056;3.656;2023-03-23T15:59:36;17.85;;;3.97;;
27543;SDS011;17996;51.056;3.656;2023-03-23T16:02:02;22.05;;;4.55;;
27543;SDS011;17996;51.056;3.656;2023-03-23T16:04:28;17.52;;;4.32;;
27543;SDS011;17996;51.056;3.656;2023-03-23T16:06:55;19.02;;;4.78;;
27543;SDS011;17996;51.056;3.656;2023-03-23T16:09:23;20.40;;;4.15;;
27543;SDS011;17996;51.056;3.656;2023-03-23T16:11:48;24.02;;;5.35;;
27543;SDS011;17996;51.056;3.656;2023-03-23T16:14:14;25.85;;;5.47;;
27543;SDS011;17996;51.056;3.656;2023-03-23T16:16:44;21.67;;;5.25;;
27543;SDS011;17996;51.056;3.656;2023-03-23T16:19:12;16.08;;;4.18;;
27543;SDS011;17996;51.056;3.656;2023-03-23T16:21:39;22.05;;;4.30;;
27543;SDS011;17996;51.056;3.656;2023-03-23T16:24:05;20.10;;;4.93;;
27543;SDS011;17996;51.056;3.656;2023-03-23T16:26:32;21.38;;;5.07;;
27543;SDS011;17996;51.056;3.656;2023-03-23T16:28:58;11.40;;;3.20;;
27543;SDS011;17996;51.056;3.656;2023-03-23T16:31:24;15.27;;;3.65;;
27543;SDS011;17996;51.056;3.656;2023-03-23T16:33:50;19.98;;;5.00;;
27543;SDS011;17996;51.056;3.656;2023-03-23T16:36:16;13.98;;;4.22;;
27543;SDS011;17996;51.056;3.656;2023-03-23T16:38:42;20.15;;;3.65;;
27543;SDS011;17996;51.056;3.656;2023-03-23T16:41:07;26.33;;;4.45;;
27543;SDS011;17996;51.056;3.656;2023-03-23T16:43:33;11.18;;;4.07;;
27543;SDS011;17996;51.056;3.656;2023-03-23T16:45:59;13.90;;;3.78;;
27543;SDS011;17996;51.056;3.656;2023-03-23T16:48:25;11.85;;;3.50;;
27543;SDS011;17996;51.056;3.656;2023-03-23T16:50:51;15.65;;;3.60;;
27543;SDS011;17996;51.056;3.656;2023-03-23T16:53:18;13.13;;;3.25;;
27543;SDS011;17996;51.056;3.656;2023-03-23T16:55:45;16.42;;;4.18;;
27543;SDS011;17996;51.056;3.656;2023-03-23T16:58:12;12.52;;;3.22;;
27543;SDS011;17996;51.056;3.656;2023-03-23T17:00:40;16.17;;;3.53;;
27543;SDS011;17996;51.056;3.656;2023-03-23T17:03:07;21.48;;;4.20;;
27543;SDS011;17996;51.056;3.656;2023-03-23T17:05:33;16.73;;;4.00;;
27543;SDS011;17996;51.056;3.656;2023-03-23T17:08:00;25.02;;;4.43;;
27543;SDS011;17996;51.056;3.656;2023-03-23T17:10:26;20.73;;;4.20;;
27543;SDS011;17996;51.056;3.656;2023-03-23T17:12:54;18.58;;;4.35;;
27543;SDS011;17996;51.056;3.656;2023-03-23T17:15:20;17.83;;;4.22;;
27543;SDS011;17996;51.056;3.656;2023-03-23T17:17:46;18.58;;;4.65;;
27543;SDS011;17996;51.056;3.656;2023-03-23T17:20:12;30.20;;;4.93;;
27543;SDS011;17996;51.056;3.656;2023-03-23T17:22:38;12.70;;;3.60;;